sensor_id;sensor_type;location;lat;lon;timestamp;P1;durP1;ratioP1;P2;durP2;ratioP2
57643;SDS011;43474;46.510;6.686;2023-08-12T00:01:33;2.67;;;2.03;;
57643;SDS011;43474;46.510;6.686;2023-08-12T00:03:59;3.92;;;2.20;;
57643;SDS011;43474;46.510;6.686;2023-08-12T00:06:24;4.15;;;2.30;;
57643;SDS011;43474;46.510;6.686;2023-08-12T00:08:50;3.13;;;2.15;;
57643;SDS011;43474;46.510;6.686;2023-08-12T00:11:16;2.97;;;2.50;;
57643;SDS011;43474;46.510;6.686;2023-08-12T00:13:42;3.70;;;2.40;;
57643;SDS011;43474;46.510;6.686;2023-08-12T00:16:07;3.42;;;2.10;;
57643;SDS011;43474;46.510;6.686;2023-08-12T00:18:33;3.28;;;2.47;;
57643;SDS011;43474;46.510;6.686;2023-08-12T00:21:06;3.40;;;2.20;;
57643;SDS011;43474;46.510;6.686;2023-08-12T00:23:37;2.55;;;2.08;;
57643;SDS011;43474;46.510;6.686;2023-08-12T00:26:05;2.55;;;2.10;;
57643;SDS011;43474;46.510;6.686;2023-08-12T00:28:31;3.38;;;2.10;;
57643;SDS011;43474;46.510;6.686;2023-08-12T00:30:57;3.58;;;2.65;;
57643;SDS011;43474;46.510;6.686;2023-08-12T00:33:23;3.17;;;2.10;;
57643;SDS011;43474;46.510;6.686;2023-08-12T00:35:48;2.25;;;2.05;;
57643;SDS011;43474;46.510;6.686;2023-08-12T00:38:14;2.47;;;2.05;;
57643;SDS011;43474;46.510;6.686;2023-08-12T00:40:40;2.58;;;2.22;;
57643;SDS011;43474;46.510;6.686;2023-08-12T00:43:05;4.13;;;2.60;;
57643;SDS011;43474;46.510;6.686;2023-08-12T00:45:31;2.60;;;2.17;;
57643;SDS011;43474;46.510;6.686;2023-08-12T00:47:57;2.40;;;2.20;;
57643;SDS011;43474;46.510;6.686;2023-08-12T00:50:22;4.22;;;2.50;;
57643;SDS011;43474;46.510;6.686;2023-08-12T00:52:49;3.28;;;2.15;;
57643;SDS011;43474;46.510;6.686;2023-08-12T00:55:15;3.15;;;2.40;;
57643;SDS011;43474;46.510;6.686;2023-08-12T00:57:42;3.83;;;2.47;;
57643;SDS011;43474;46.510;6.686;2023-08-12T01:00:08;2.55;;;2.17;;
57643;SDS011;43474;46.510;6.686;2023-08-12T01:02:34;3.58;;;2.30;;
57643;SDS011;43474;46.510;6.686;2023-08-12T01:05:00;2.90;;;2.60;;
57643;SDS011;43474;46.510;6.686;2023-08-12T01:07:26;3.65;;;2.30;;
57643;SDS011;43474;46.510;6.686;2023-08-12T01:09:52;2.72;;;2.40;;
57643;SDS011;43474;46.510;6.686;2023-08-12T01:12:20;3.10;;;2.58;;
57643;SDS011;43474;46.510;6.686;2023-08-12T01:14:50;2.83;;;2.20;;
57643;SDS011;43474;46.510;6.686;2023-08-12T01:17:22;3.00;;;2.22;;
57643;SDS011;43474;46.510;6.686;2023-08-12T01:19:47;4.25;;;2.47;;
57643;SDS011;43474;46.510;6.686;2023-08-12T01:22:14;2.95;;;2.10;;
57643;SDS011;43474;46.510;6.686;2023-08-12T01:24:43;3.30;;;2.38;;
57643;SDS011;43474;46.510;6.686;2023-08-12T01:27:10;3.53;;;2.00;;
57643;SDS011;43474;46.510;6.686;2023-08-12T01:29:37;2.97;;;2.40;;
57643;SDS011;43474;46.510;6.686;2023-08-12T01:32:07;3.65;;;2.53;;
57643;SDS011;43474;46.510;6.686;2023-08-12T01:34:43;2.28;;;2.08;;
57643;SDS011;43474;46.510;6.686;2023-08-12T01:37:17;3.08;;;2.15;;
57643;SDS011;43474;46.510;6.686;2023-08-12T01:39:49;3.38;;;2.28;;
57643;SDS011;43474;46.510;6.686;2023-08-12T01:42:18;2.75;;;2.08;;
57643;SDS011;43474;46.510;6.686;2023-08-12T01:44:44;2.72;;;2.30;;
57643;SDS011;43474;46.510;6.686;2023-08-12T01:47:11;3.42;;;2.20;;
57643;SDS011;43474;46.510;6.686;2023-08-12T01:49:36;2.60;;;2.33;;
57643;SDS011;43474;46.510;6.686;2023-08-12T01:52:02;2.95;;;2.35;;
57643;SDS011;43474;46.510;6.686;2023-08-12T01:54:28;2.83;;;2.22;;
57643;SDS011;43474;46.510;6.686;2023-08-12T01:57:00;2.47;;;2.20;;
57643;SDS011;43474;46.510;6.686;2023-08-12T01:59:27;3.00;;;2.55;;
57643;SDS011;43474;46.510;6.686;2023-08-12T02:01:52;2.78;;;2.20;;
57643;SDS011;43474;46.510;6.686;2023-08-12T02:04:18;2.42;;;2.22;;
57643;SDS011;43474;46.510;6.686;2023-08-12T02:06:43;3.22;;;2.40;;
57643;SDS011;43474;46.510;6.686;2023-08-12T02:09:09;2.60;;;2.30;;
57643;SDS011;43474;46.510;6.686;2023-08-12T02:11:34;2.55;;;2.30;;
57643;SDS011;43474;46.510;6.686;2023-08-12T02:14:00;2.95;;;2.55;;
57643;SDS011;43474;46.510;6.686;2023-08-12T02:16:26;2.72;;;2.28;;
57643;SDS011;43474;46.510;6.686;2023-08-12T02:18:51;4.47;;;2.50;;
57643;SDS011;43474;46.510;6.686;2023-08-12T02:21:17;3.17;;;2.50;;
57643;SDS011;43474;46.510;6.686;2023-08-12T02:23:42;2.45;;;2.10;;
57643;SDS011;43474;46.510;6.686;2023-08-12T02:26:09;2.60;;;2.40;;
57643;SDS011;43474;46.510;6.686;2023-08-12T02:28:35;2.78;;;2.13;;
57643;SDS011;43474;46.510;6.686;2023-08-12T02:31:01;2.72;;;2.28;;
57643;SDS011;43474;46.510;6.686;2023-08-12T02:33:26;2.70;;;2.30;;
57643;SDS011;43474;46.510;6.686;2023-08-12T02:35:53;2.55;;;2.30;;
57643;SDS011;43474;46.510;6.686;2023-08-12T02:38:19;2.53;;;2.30;;
57643;SDS011;43474;46.510;6.686;2023-08-12T02:40:49;4.95;;;2.17;;
57643;SDS011;43474;46.510;6.686;2023-08-12T02:43:15;2.97;;;2.40;;
57643;SDS011;43474;46.510;6.686;2023-08-12T02:45:42;3.33;;;2.33;;
57643;SDS011;43474;46.510;6.686;2023-08-12T02:48:09;3.92;;;2.40;;
57643;SDS011;43474;46.510;6.686;2023-08-12T02:50:35;2.90;;;2.60;;
57643;SDS011;43474;46.510;6.686;2023-08-12T02:53:00;2.47;;;2.10;;
57643;SDS011;43474;46.510;6.686;2023-08-12T02:55:26;2.53;;;2.20;;
57643;SDS011;43474;46.510;6.686;2023-08-12T02:57:51;2.92;;;2.33;;
57643;SDS011;43474;46.510;6.686;2023-08-12T03:00:17;4.15;;;2.30;;
57643;SDS011;43474;46.510;6.686;2023-08-12T03:02:43;2.83;;;2.53;;
57643;SDS011;43474;46.510;6.686;2023-08-12T03:05:09;3.25;;;2.50;;
57643;SDS011;43474;46.510;6.686;2023-08-12T03:07:35;2.78;;;2.42;;
57643;SDS011;43474;46.510;6.686;2023-08-12T03:10:00;3.38;;;2.50;;
57643;SDS011;43474;46.510;6.686;2023-08-12T03:12:26;2.67;;;2.47;;
57643;SDS011;43474;46.510;6.686;2023-08-12T03:14:52;3.70;;;2.50;;
57643;SDS011;43474;46.510;6.686;2023-08-12T03:17:17;2.50;;;2.30;;
57643;SDS011;43474;46.510;6.686;2023-08-12T03:19:43;2.92;;;2.60;;
57643;SDS011;43474;46.510;6.686;2023-08-12T03:22:08;3.15;;;2.50;;
57643;SDS011;43474;46.510;6.686;2023-08-12T03:24:34;3.40;;;2.30;;
57643;SDS011;43474;46.510;6.686;2023-08-12T03:26:59;3.28;;;2.17;;
57643;SDS011;43474;46.510;6.686;2023-08-12T03:29:25;2.60;;;2.38;;
57643;SDS011;43474;46.510;6.686;2023-08-12T03:31:50;3.10;;;2.50;;
57643;SDS011;43474;46.510;6.686;2023-08-12T03:34:16;3.40;;;2.67;;
57643;SDS011;43474;46.510;6.686;2023-08-12T03:36:42;3.35;;;2.45;;
57643;SDS011;43474;46.510;6.686;2023-08-12T03:39:08;3.38;;;2.58;;
57643;SDS011;43474;46.510;6.686;2023-08-12T03:41:33;2.50;;;2.28;;
57643;SDS011;43474;46.510;6.686;2023-08-12T03:43:59;2.42;;;2.22;;
57643;SDS011;43474;46.510;6.686;2023-08-12T03:46:24;3.00;;;2.70;;
57643;SDS011;43474;46.510;6.686;2023-08-12T03:48:50;2.53;;;2.25;;
57643;SDS011;43474;46.510;6.686;2023-08-12T03:51:16;2.80;;;2.50;;
57643;SDS011;43474;46.510;6.686;2023-08-12T03:53:41;2.75;;;2.30;;
57643;SDS011;43474;46.510;6.686;2023-08-12T03:56:07;2.60;;;2.40;;
57643;SDS011;43474;46.510;6.686;2023-08-12T03:58:32;3.08;;;2.33;;
57643;SDS011;43474;46.510;6.686;2023-08-12T04:00:58;3.65;;;2.85;;
57643;SDS011;43474;46.510;6.686;2023-08-12T04:03:24;3.22;;;2.50;;
57643;SDS011;43474;46.510;6.686;2023-08-12T04:05:50;3.42;;;2.30;;
57643;SDS011;43474;46.510;6.686;2023-08-12T04:08:20;3.20;;;2.53;;
57643;SDS011;43474;46.510;6.686;2023-08-12T04:10:50;4.43;;;2.58;;
57643;SDS011;43474;46.510;6.686;2023-08-12T04:13:16;3.42;;;2.63;;
57643;SDS011;43474;46.510;6.686;2023-08-12T04:15:42;2.85;;;2.35;;
57643;SDS011;43474;46.510;6.686;2023-08-12T04:18:08;3.03;;;2.70;;
57643;SDS011;43474;46.510;6.686;2023-08-12T04:20:33;3.78;;;2.72;;
57643;SDS011;43474;46.510;6.686;2023-08-12T04:22:59;2.72;;;2.35;;
57643;SDS011;43474;46.510;6.686;2023-08-12T04:25:25;2.60;;;2.35;;
57643;SDS011;43474;46.510;6.686;2023-08-12T04:27:50;3.13;;;2.70;;
57643;SDS011;43474;46.510;6.686;2023-08-12T04:30:18;2.53;;;2.30;;
57643;SDS011;43474;46.510;6.686;2023-08-12T04:32:44;3.47;;;2.90;;
57643;SDS011;43474;46.510;6.686;2023-08-12T04:35:09;3.22;;;2.63;;
57643;SDS011;43474;46.510;6.686;2023-08-12T04:37:35;3.05;;;2.50;;
57643;SDS011;43474;46.510;6.686;2023-08-12T04:40:02;3.30;;;2.60;;
57643;SDS011;43474;46.510;6.686;2023-08-12T04:42:32;3.28;;;2.63;;
57643;SDS011;43474;46.510;6.686;2023-08-12T04:44:58;3.78;;;2.45;;
57643;SDS011;43474;46.510;6.686;2023-08-12T04:47:24;3.13;;;2.30;;
57643;SDS011;43474;46.510;6.686;2023-08-12T04:49:49;3.60;;;2.55;;
57643;SDS011;43474;46.510;6.686;2023-08-12T04:52:15;2.88;;;2.33;;
57643;SDS011;43474;46.510;6.686;2023-08-12T04:54:41;3.00;;;2.40;;
57643;SDS011;43474;46.510;6.686;2023-08-12T04:57:06;3.22;;;2.85;;
57643;SDS011;43474;46.510;6.686;2023-08-12T04:59:32;3.05;;;2.47;;
57643;SDS011;43474;46.510;6.686;2023-08-12T05:01:57;2.65;;;2.40;;
57643;SDS011;43474;46.510;6.686;2023-08-12T05:04:23;2.58;;;2.30;;
57643;SDS011;43474;46.510;6.686;2023-08-12T05:06:48;2.63;;;2.30;;
57643;SDS011;43474;46.510;6.686;2023-08-12T05:09:14;2.72;;;2.08;;
57643;SDS011;43474;46.510;6.686;2023-08-12T05:11:39;3.25;;;2.65;;
57643;SDS011;43474;46.510;6.686;2023-08-12T05:14:05;3.33;;;2.58;;
57643;SDS011;43474;46.510;6.686;2023-08-12T05:16:31;4.57;;;2.70;;
57643;SDS011;43474;46.510;6.686;2023-08-12T05:18:57;3.38;;;2.90;;
57643;SDS011;43474;46.510;6.686;2023-08-12T05:21:22;4.15;;;2.40;;
57643;SDS011;43474;46.510;6.686;2023-08-12T05:23:48;3.88;;;2.88;;
57643;SDS011;43474;46.510;6.686;2023-08-12T05:26:14;3.30;;;2.42;;
57643;SDS011;43474;46.510;6.686;2023-08-12T05:28:39;2.90;;;2.55;;
57643;SDS011;43474;46.510;6.686;2023-08-12T05:31:05;4.10;;;2.67;;
57643;SDS011;43474;46.510;6.686;2023-08-12T05:33:31;5.53;;;2.58;;
57643;SDS011;43474;46.510;6.686;2023-08-12T05:35:56;4.47;;;2.80;;
57643;SDS011;43474;46.510;6.686;2023-08-12T05:38:22;2.83;;;2.53;;
57643;SDS011;43474;46.510;6.686;2023-08-12T05:40:48;3.53;;;2.40;;
57643;SDS011;43474;46.510;6.686;2023-08-12T05:43:13;2.85;;;2.53;;
57643;SDS011;43474;46.510;6.686;2023-08-12T05:45:39;3.28;;;2.53;;
57643;SDS011;43474;46.510;6.686;2023-08-12T05:48:05;2.70;;;2.50;;
57643;SDS011;43474;46.510;6.686;2023-08-12T05:50:30;2.88;;;2.42;;
57643;SDS011;43474;46.510;6.686;2023-08-12T05:52:56;3.00;;;2.45;;
57643;SDS011;43474;46.510;6.686;2023-08-12T05:55:21;2.83;;;2.53;;
57643;SDS011;43474;46.510;6.686;2023-08-12T05:57:47;3.28;;;2.17;;
57643;SDS011;43474;46.510;6.686;2023-08-12T06:00:13;3.47;;;2.55;;
57643;SDS011;43474;46.510;6.686;2023-08-12T06:02:39;3.67;;;2.53;;
57643;SDS011;43474;46.510;6.686;2023-08-12T06:05:04;2.40;;;2.20;;
57643;SDS011;43474;46.510;6.686;2023-08-12T06:07:30;2.75;;;2.38;;
57643;SDS011;43474;46.510;6.686;2023-08-12T06:09:56;4.45;;;2.28;;
57643;SDS011;43474;46.510;6.686;2023-08-12T06:12:21;3.60;;;2.45;;
57643;SDS011;43474;46.510;6.686;2023-08-12T06:14:47;3.95;;;2.90;;
57643;SDS011;43474;46.510;6.686;2023-08-12T06:17:13;4.90;;;2.80;;
57643;SDS011;43474;46.510;6.686;2023-08-12T06:19:38;3.97;;;2.72;;
57643;SDS011;43474;46.510;6.686;2023-08-12T06:22:04;3.75;;;2.58;;
57643;SDS011;43474;46.510;6.686;2023-08-12T06:24:29;3.00;;;2.50;;
57643;SDS011;43474;46.510;6.686;2023-08-12T06:26:55;3.65;;;2.88;;
57643;SDS011;43474;46.510;6.686;2023-08-12T06:29:20;3.58;;;2.67;;
57643;SDS011;43474;46.510;6.686;2023-08-12T06:31:46;2.90;;;2.60;;
57643;SDS011;43474;46.510;6.686;2023-08-12T06:34:11;2.60;;;2.40;;
57643;SDS011;43474;46.510;6.686;2023-08-12T06:36:37;3.30;;;2.60;;
57643;SDS011;43474;46.510;6.686;2023-08-12T06:39:03;3.30;;;2.90;;
57643;SDS011;43474;46.510;6.686;2023-08-12T06:41:28;3.65;;;2.72;;
57643;SDS011;43474;46.510;6.686;2023-08-12T06:43:54;5.43;;;2.75;;
57643;SDS011;43474;46.510;6.686;2023-08-12T06:46:20;2.90;;;2.60;;
57643;SDS011;43474;46.510;6.686;2023-08-12T06:48:45;3.50;;;2.95;;
57643;SDS011;43474;46.510;6.686;2023-08-12T06:51:11;3.63;;;2.78;;
57643;SDS011;43474;46.510;6.686;2023-08-12T06:53:37;5.00;;;3.10;;
57643;SDS011;43474;46.510;6.686;2023-08-12T06:56:04;3.83;;;3.10;;
57643;SDS011;43474;46.510;6.686;2023-08-12T06:58:30;3.28;;;2.80;;
57643;SDS011;43474;46.510;6.686;2023-08-12T07:00:56;3.60;;;3.20;;
57643;SDS011;43474;46.510;6.686;2023-08-12T07:03:22;7.57;;;2.97;;
57643;SDS011;43474;46.510;6.686;2023-08-12T07:05:48;4.20;;;3.20;;
57643;SDS011;43474;46.510;6.686;2023-08-12T07:08:14;3.95;;;3.03;;
57643;SDS011;43474;46.510;6.686;2023-08-12T07:10:39;3.33;;;2.97;;
57643;SDS011;43474;46.510;6.686;2023-08-12T07:13:06;4.32;;;3.17;;
57643;SDS011;43474;46.510;6.686;2023-08-12T07:15:31;5.47;;;3.08;;
57643;SDS011;43474;46.510;6.686;2023-08-12T07:17:57;3.95;;;2.90;;
57643;SDS011;43474;46.510;6.686;2023-08-12T07:20:26;4.85;;;3.28;;
57643;SDS011;43474;46.510;6.686;2023-08-12T07:22:54;3.85;;;3.05;;
57643;SDS011;43474;46.510;6.686;2023-08-12T07:25:21;3.53;;;3.10;;
57643;SDS011;43474;46.510;6.686;2023-08-12T07:27:46;4.07;;;3.60;;
57643;SDS011;43474;46.510;6.686;2023-08-12T07:30:12;5.63;;;3.28;;
57643;SDS011;43474;46.510;6.686;2023-08-12T07:32:37;4.72;;;3.25;;
57643;SDS011;43474;46.510;6.686;2023-08-12T07:35:04;4.88;;;3.20;;
57643;SDS011;43474;46.510;6.686;2023-08-12T07:37:33;4.03;;;3.42;;
57643;SDS011;43474;46.510;6.686;2023-08-12T07:39:59;5.85;;;3.47;;
57643;SDS011;43474;46.510;6.686;2023-08-12T07:42:25;4.43;;;3.10;;
57643;SDS011;43474;46.510;6.686;2023-08-12T07:44:51;3.80;;;3.08;;
57643;SDS011;43474;46.510;6.686;2023-08-12T07:47:16;6.35;;;3.63;;
57643;SDS011;43474;46.510;6.686;2023-08-12T07:49:42;5.10;;;2.90;;
57643;SDS011;43474;46.510;6.686;2023-08-12T07:52:08;5.85;;;3.20;;
57643;SDS011;43474;46.510;6.686;2023-08-12T07:54:34;5.30;;;2.97;;
57643;SDS011;43474;46.510;6.686;2023-08-12T07:56:59;4.38;;;3.50;;
57643;SDS011;43474;46.510;6.686;2023-08-12T07:59:25;4.78;;;3.10;;
57643;SDS011;43474;46.510;6.686;2023-08-12T08:01:51;3.78;;;3.38;;
57643;SDS011;43474;46.510;6.686;2023-08-12T08:04:17;5.85;;;3.25;;
57643;SDS011;43474;46.510;6.686;2023-08-12T08:06:42;3.92;;;3.40;;
57643;SDS011;43474;46.510;6.686;2023-08-12T08:09:09;4.70;;;3.55;;
57643;SDS011;43474;46.510;6.686;2023-08-12T08:11:34;5.90;;;3.05;;
57643;SDS011;43474;46.510;6.686;2023-08-12T08:14:00;3.13;;;2.80;;
57643;SDS011;43474;46.510;6.686;2023-08-12T08:16:26;4.00;;;3.15;;
57643;SDS011;43474;46.510;6.686;2023-08-12T08:18:52;5.38;;;3.38;;
57643;SDS011;43474;46.510;6.686;2023-08-12T08:21:17;6.30;;;3.20;;
57643;SDS011;43474;46.510;6.686;2023-08-12T08:23:43;4.32;;;2.90;;
57643;SDS011;43474;46.510;6.686;2023-08-12T08:26:09;6.75;;;3.50;;
57643;SDS011;43474;46.510;6.686;2023-08-12T08:28:35;7.55;;;4.22;;
57643;SDS011;43474;46.510;6.686;2023-08-12T08:31:00;5.97;;;3.70;;
57643;SDS011;43474;46.510;6.686;2023-08-12T08:33:26;5.18;;;3.60;;
57643;SDS011;43474;46.510;6.686;2023-08-12T08:35:52;6.18;;;3.75;;
57643;SDS011;43474;46.510;6.686;2023-08-12T08:38:19;5.03;;;3.55;;
57643;SDS011;43474;46.510;6.686;2023-08-12T08:40:45;7.65;;;3.50;;
57643;SDS011;43474;46.510;6.686;2023-08-12T08:43:10;5.68;;;3.78;;
57643;SDS011;43474;46.510;6.686;2023-08-12T08:45:40;8.05;;;3.63;;
57643;SDS011;43474;46.510;6.686;2023-08-12T08:48:09;4.80;;;3.63;;
57643;SDS011;43474;46.510;6.686;2023-08-12T08:50:36;5.75;;;3.80;;
57643;SDS011;43474;46.510;6.686;2023-08-12T08:53:02;5.80;;;3.47;;
57643;SDS011;43474;46.510;6.686;2023-08-12T08:55:31;8.75;;;3.75;;
57643;SDS011;43474;46.510;6.686;2023-08-12T08:57:57;5.00;;;3.60;;
57643;SDS011;43474;46.510;6.686;2023-08-12T09:00:23;5.78;;;3.20;;
57643;SDS011;43474;46.510;6.686;2023-08-12T09:02:50;5.65;;;3.33;;
57643;SDS011;43474;46.510;6.686;2023-08-12T09:05:18;5.05;;;3.20;;
57643;SDS011;43474;46.510;6.686;2023-08-12T09:07:46;6.43;;;3.35;;
57643;SDS011;43474;46.510;6.686;2023-08-12T09:10:12;5.38;;;3.53;;
57643;SDS011;43474;46.510;6.686;2023-08-12T09:12:38;8.02;;;3.63;;
57643;SDS011;43474;46.510;6.686;2023-08-12T09:15:05;5.63;;;3.60;;
57643;SDS011;43474;46.510;6.686;2023-08-12T09:17:32;6.40;;;3.20;;
57643;SDS011;43474;46.510;6.686;2023-08-12T09:19:58;5.75;;;3.33;;
57643;SDS011;43474;46.510;6.686;2023-08-12T09:22:24;4.65;;;3.08;;
57643;SDS011;43474;46.510;6.686;2023-08-12T09:24:56;5.88;;;3.10;;
57643;SDS011;43474;46.510;6.686;2023-08-12T09:27:26;6.07;;;3.45;;
57643;SDS011;43474;46.510;6.686;2023-08-12T09:29:55;4.18;;;2.97;;
57643;SDS011;43474;46.510;6.686;2023-08-12T09:32:22;6.78;;;2.95;;
57643;SDS011;43474;46.510;6.686;2023-08-12T09:34:54;5.10;;;3.10;;
57643;SDS011;43474;46.510;6.686;2023-08-12T09:37:21;6.28;;;3.30;;
57643;SDS011;43474;46.510;6.686;2023-08-12T09:39:48;4.35;;;3.17;;
57643;SDS011;43474;46.510;6.686;2023-08-12T09:42:16;5.50;;;3.17;;
57643;SDS011;43474;46.510;6.686;2023-08-12T09:44:43;6.57;;;3.40;;
57643;SDS011;43474;46.510;6.686;2023-08-12T09:47:09;4.30;;;3.08;;
57643;SDS011;43474;46.510;6.686;2023-08-12T09:49:35;3.95;;;3.08;;
57643;SDS011;43474;46.510;6.686;2023-08-12T09:52:02;6.32;;;3.50;;
57643;SDS011;43474;46.510;6.686;2023-08-12T09:54:30;3.53;;;2.95;;
57643;SDS011;43474;46.510;6.686;2023-08-12T09:56:58;6.00;;;3.63;;
57643;SDS011;43474;46.510;6.686;2023-08-12T09:59:27;4.00;;;3.05;;
57643;SDS011;43474;46.510;6.686;2023-08-12T10:01:56;5.90;;;3.42;;
57643;SDS011;43474;46.510;6.686;2023-08-12T10:04:22;7.82;;;3.47;;
57643;SDS011;43474;46.510;6.686;2023-08-12T10:06:52;4.45;;;3.35;;
57643;SDS011;43474;46.510;6.686;2023-08-12T10:09:18;5.53;;;3.55;;
57643;SDS011;43474;46.510;6.686;2023-08-12T10:11:45;5.50;;;3.47;;
57643;SDS011;43474;46.510;6.686;2023-08-12T10:14:12;3.30;;;2.80;;
57643;SDS011;43474;46.510;6.686;2023-08-12T10:16:38;6.35;;;3.50;;
57643;SDS011;43474;46.510;6.686;2023-08-12T10:19:06;5.68;;;3.55;;
57643;SDS011;43474;46.510;6.686;2023-08-12T10:21:37;6.07;;;3.15;;
57643;SDS011;43474;46.510;6.686;2023-08-12T10:24:02;4.70;;;3.45;;
57643;SDS011;43474;46.510;6.686;2023-08-12T10:26:30;4.85;;;3.70;;
57643;SDS011;43474;46.510;6.686;2023-08-12T10:28:57;4.88;;;3.45;;
57643;SDS011;43474;46.510;6.686;2023-08-12T10:31:26;3.80;;;3.25;;
57643;SDS011;43474;46.510;6.686;2023-08-12T10:33:53;7.95;;;4.03;;
57643;SDS011;43474;46.510;6.686;2023-08-12T10:36:19;5.90;;;3.83;;
57643;SDS011;43474;46.510;6.686;2023-08-12T10:38:46;4.85;;;3.78;;
57643;SDS011;43474;46.510;6.686;2023-08-12T10:46:22;7.93;;;3.47;;
57643;SDS011;43474;46.510;6.686;2023-08-12T10:48:56;5.78;;;3.97;;
57643;SDS011;43474;46.510;6.686;2023-08-12T10:54:14;5.97;;;3.40;;
57643;SDS011;43474;46.510;6.686;2023-08-12T10:59:48;7.35;;;3.45;;
57643;SDS011;43474;46.510;6.686;2023-08-12T11:04:43;5.65;;;3.75;;
57643;SDS011;43474;46.510;6.686;2023-08-12T11:07:19;5.85;;;3.90;;
57643;SDS011;43474;46.510;6.686;2023-08-12T11:10:15;5.35;;;4.03;;
57643;SDS011;43474;46.510;6.686;2023-08-12T11:13:01;5.38;;;3.78;;
57643;SDS011;43474;46.510;6.686;2023-08-12T11:15:32;6.70;;;4.32;;
57643;SDS011;43474;46.510;6.686;2023-08-12T11:18:01;5.18;;;3.97;;
57643;SDS011;43474;46.510;6.686;2023-08-12T11:20:31;5.80;;;4.20;;
57643;SDS011;43474;46.510;6.686;2023-08-12T11:22:57;5.93;;;4.20;;
57643;SDS011;43474;46.510;6.686;2023-08-12T11:25:24;5.22;;;3.80;;
57643;SDS011;43474;46.510;6.686;2023-08-12T11:27:51;7.30;;;4.35;;
57643;SDS011;43474;46.510;6.686;2023-08-12T11:30:17;6.60;;;4.10;;
57643;SDS011;43474;46.510;6.686;2023-08-12T11:32:45;5.28;;;4.10;;
57643;SDS011;43474;46.510;6.686;2023-08-12T11:35:12;5.45;;;4.00;;
57643;SDS011;43474;46.510;6.686;2023-08-12T11:37:40;6.07;;;4.45;;
57643;SDS011;43474;46.510;6.686;2023-08-12T11:40:08;4.13;;;3.60;;
57643;SDS011;43474;46.510;6.686;2023-08-12T11:42:38;6.10;;;4.00;;
57643;SDS011;43474;46.510;6.686;2023-08-12T11:45:05;7.32;;;3.70;;
57643;SDS011;43474;46.510;6.686;2023-08-12T11:47:33;5.15;;;3.63;;
57643;SDS011;43474;46.510;6.686;2023-08-12T11:50:01;9.18;;;3.65;;
57643;SDS011;43474;46.510;6.686;2023-08-12T11:52:28;5.78;;;4.30;;
57643;SDS011;43474;46.510;6.686;2023-08-12T11:54:53;9.75;;;3.80;;
57643;SDS011;43474;46.510;6.686;2023-08-12T11:57:21;7.75;;;4.20;;
57643;SDS011;43474;46.510;6.686;2023-08-12T11:59:47;4.65;;;3.38;;
57643;SDS011;43474;46.510;6.686;2023-08-12T12:02:13;8.07;;;3.88;;
57643;SDS011;43474;46.510;6.686;2023-08-12T12:04:40;6.95;;;3.55;;
57643;SDS011;43474;46.510;6.686;2023-08-12T12:07:26;7.53;;;3.53;;
57643;SDS011;43474;46.510;6.686;2023-08-12T12:09:52;6.32;;;3.80;;
57643;SDS011;43474;46.510;6.686;2023-08-12T12:12:22;5.47;;;3.70;;
57643;SDS011;43474;46.510;6.686;2023-08-12T12:14:51;5.65;;;3.88;;
57643;SDS011;43474;46.510;6.686;2023-08-12T12:17:18;5.78;;;3.50;;
57643;SDS011;43474;46.510;6.686;2023-08-12T12:19:46;5.32;;;3.78;;
57643;SDS011;43474;46.510;6.686;2023-08-12T12:22:12;7.30;;;3.70;;
57643;SDS011;43474;46.510;6.686;2023-08-12T12:24:44;6.65;;;3.50;;
57643;SDS011;43474;46.510;6.686;2023-08-12T12:27:12;7.70;;;4.10;;
57643;SDS011;43474;46.510;6.686;2023-08-12T12:29:39;6.95;;;4.00;;
57643;SDS011;43474;46.510;6.686;2023-08-12T12:32:04;5.05;;;3.60;;
57643;SDS011;43474;46.510;6.686;2023-08-12T12:34:30;5.45;;;3.60;;
57643;SDS011;43474;46.510;6.686;2023-08-12T12:36:56;4.85;;;3.30;;
57643;SDS011;43474;46.510;6.686;2023-08-12T12:39:21;4.82;;;3.40;;
57643;SDS011;43474;46.510;6.686;2023-08-12T12:41:48;5.18;;;3.50;;
57643;SDS011;43474;46.510;6.686;2023-08-12T12:44:14;6.22;;;3.65;;
57643;SDS011;43474;46.510;6.686;2023-08-12T12:46:40;5.30;;;3.50;;
57643;SDS011;43474;46.510;6.686;2023-08-12T12:49:06;4.88;;;3.28;;
57643;SDS011;43474;46.510;6.686;2023-08-12T12:51:32;5.80;;;3.33;;
57643;SDS011;43474;46.510;6.686;2023-08-12T12:53:57;6.78;;;3.40;;
57643;SDS011;43474;46.510;6.686;2023-08-12T12:56:23;4.60;;;3.42;;
57643;SDS011;43474;46.510;6.686;2023-08-12T12:58:48;4.57;;;3.17;;
57643;SDS011;43474;46.510;6.686;2023-08-12T13:01:14;5.20;;;3.53;;
57643;SDS011;43474;46.510;6.686;2023-08-12T13:03:39;5.07;;;3.35;;
57643;SDS011;43474;46.510;6.686;2023-08-12T13:06:05;4.72;;;3.17;;
57643;SDS011;43474;46.510;6.686;2023-08-12T13:08:31;6.47;;;3.53;;
57643;SDS011;43474;46.510;6.686;2023-08-12T13:10:57;4.45;;;3.25;;
57643;SDS011;43474;46.510;6.686;2023-08-12T13:13:23;4.40;;;3.53;;
57643;SDS011;43474;46.510;6.686;2023-08-12T13:15:49;4.45;;;3.65;;
57643;SDS011;43474;46.510;6.686;2023-08-12T13:18:14;5.57;;;3.10;;
57643;SDS011;43474;46.510;6.686;2023-08-12T13:20:40;4.97;;;3.33;;
57643;SDS011;43474;46.510;6.686;2023-08-12T13:23:06;4.03;;;3.15;;
57643;SDS011;43474;46.510;6.686;2023-08-12T13:25:32;4.90;;;3.10;;
57643;SDS011;43474;46.510;6.686;2023-08-12T13:27:59;4.57;;;3.20;;
57643;SDS011;43474;46.510;6.686;2023-08-12T13:30:25;3.65;;;2.85;;
57643;SDS011;43474;46.510;6.686;2023-08-12T13:32:51;4.28;;;3.28;;
57643;SDS011;43474;46.510;6.686;2023-08-12T13:35:17;4.53;;;2.92;;
57643;SDS011;43474;46.510;6.686;2023-08-12T13:37:42;4.85;;;3.17;;
57643;SDS011;43474;46.510;6.686;2023-08-12T13:40:08;4.20;;;3.20;;
57643;SDS011;43474;46.510;6.686;2023-08-12T13:42:36;4.85;;;3.28;;
57643;SDS011;43474;46.510;6.686;2023-08-12T13:45:02;3.47;;;3.10;;
57643;SDS011;43474;46.510;6.686;2023-08-12T13:47:28;5.55;;;3.05;;
57643;SDS011;43474;46.510;6.686;2023-08-12T13:49:54;5.30;;;3.28;;
57643;SDS011;43474;46.510;6.686;2023-08-12T13:52:19;4.40;;;3.35;;
57643;SDS011;43474;46.510;6.686;2023-08-12T13:54:45;4.60;;;3.42;;
57643;SDS011;43474;46.510;6.686;2023-08-12T13:57:10;3.72;;;2.92;;
57643;SDS011;43474;46.510;6.686;2023-08-12T13:59:37;4.05;;;3.08;;
57643;SDS011;43474;46.510;6.686;2023-08-12T14:02:02;2.95;;;2.47;;
57643;SDS011;43474;46.510;6.686;2023-08-12T14:04:28;3.67;;;3.13;;
57643;SDS011;43474;46.510;6.686;2023-08-12T14:06:54;4.43;;;3.03;;
57643;SDS011;43474;46.510;6.686;2023-08-12T14:09:19;3.22;;;2.75;;
57643;SDS011;43474;46.510;6.686;2023-08-12T14:11:45;4.38;;;3.40;;
57643;SDS011;43474;46.510;6.686;2023-08-12T14:14:11;3.50;;;2.80;;
57643;SDS011;43474;46.510;6.686;2023-08-12T14:16:36;3.80;;;3.35;;
57643;SDS011;43474;46.510;6.686;2023-08-12T14:19:02;3.78;;;2.92;;
57643;SDS011;43474;46.510;6.686;2023-08-12T14:21:27;4.35;;;3.15;;
57643;SDS011;43474;46.510;6.686;2023-08-12T14:23:56;5.05;;;3.25;;
57643;SDS011;43474;46.510;6.686;2023-08-12T14:26:21;4.47;;;3.30;;
57643;SDS011;43474;46.510;6.686;2023-08-12T14:28:47;3.17;;;2.85;;
57643;SDS011;43474;46.510;6.686;2023-08-12T14:31:13;4.80;;;2.97;;
57643;SDS011;43474;46.510;6.686;2023-08-12T14:33:38;3.88;;;2.88;;
57643;SDS011;43474;46.510;6.686;2023-08-12T14:36:04;2.78;;;2.47;;
57643;SDS011;43474;46.510;6.686;2023-08-12T14:38:31;4.63;;;3.00;;
57643;SDS011;43474;46.510;6.686;2023-08-12T14:40:58;4.13;;;2.67;;
57643;SDS011;43474;46.510;6.686;2023-08-12T14:43:24;4.55;;;3.08;;
57643;SDS011;43474;46.510;6.686;2023-08-12T14:45:49;4.47;;;3.13;;
57643;SDS011;43474;46.510;6.686;2023-08-12T14:48:15;3.92;;;3.05;;
57643;SDS011;43474;46.510;6.686;2023-08-12T14:50:50;3.53;;;2.90;;
57643;SDS011;43474;46.510;6.686;2023-08-12T14:53:16;5.05;;;3.22;;
57643;SDS011;43474;46.510;6.686;2023-08-12T14:55:42;3.92;;;3.00;;
57643;SDS011;43474;46.510;6.686;2023-08-12T14:58:07;5.07;;;3.40;;